sensor_id;sensor_type;location;lat;lon;timestamp;P1;durP1;ratioP1;P2;durP2;ratioP2
75386;SDS011;63966;47.914;22.266;2023-12-04T00:00:51;37.83;;;17.92;;
75386;SDS011;63966;47.914;22.266;2023-12-04T00:03:54;36.28;;;15.60;;
75386;SDS011;63966;47.914;22.266;2023-12-04T00:06:58;26.33;;;12.32;;
75386;SDS011;63966;47.914;22.266;2023-12-04T00:10:02;27.67;;;13.63;;
75386;SDS011;63966;47.914;22.266;2023-12-04T00:13:05;34.22;;;14.00;;
75386;SDS011;63966;47.914;22.266;2023-12-04T00:16:09;36.77;;;16.37;;
75386;SDS011;63966;47.914;22.266;2023-12-04T00:19:12;39.60;;;16.88;;
75386;SDS011;63966;47.914;22.266;2023-12-04T00:22:16;36.80;;;16.85;;
75386;SDS011;63966;47.914;22.266;2023-12-04T00:25:19;39.22;;;15.95;;
75386;SDS011;63966;47.914;22.266;2023-12-04T00:28:23;31.40;;;16.02;;
75386;SDS011;63966;47.914;22.266;2023-12-04T00:31:27;32.42;;;15.75;;
75386;SDS011;63966;47.914;22.266;2023-12-04T00:34:30;36.28;;;16.13;;
75386;SDS011;63966;47.914;22.266;2023-12-04T00:37:35;34.50;;;16.43;;
75386;SDS011;63966;47.914;22.266;2023-12-04T00:40:40;33.47;;;15.30;;
75386;SDS011;63966;47.914;22.266;2023-12-04T00:43:44;36.90;;;14.88;;
75386;SDS011;63966;47.914;22.266;2023-12-04T00:46:47;36.47;;;16.83;;
75386;SDS011;63966;47.914;22.266;2023-12-04T00:49:51;32.03;;;15.03;;
75386;SDS011;63966;47.914;22.266;2023-12-04T00:52:54;30.90;;;15.60;;
75386;SDS011;63966;47.914;22.266;2023-12-04T00:55:58;32.55;;;15.48;;
75386;SDS011;63966;47.914;22.266;2023-12-04T00:59:01;30.03;;;14.67;;
75386;SDS011;63966;47.914;22.266;2023-12-04T01:02:06;34.13;;;15.40;;
75386;SDS011;63966;47.914;22.266;2023-12-04T01:05:10;32.72;;;14.48;;
75386;SDS011;63966;47.914;22.266;2023-12-04T01:08:14;36.10;;;15.80;;
75386;SDS011;63966;47.914;22.266;2023-12-04T01:11:17;30.83;;;14.52;;
75386;SDS011;63966;47.914;22.266;2023-12-04T01:14:21;39.55;;;15.82;;
75386;SDS011;63966;47.914;22.266;2023-12-04T01:17:25;32.72;;;14.57;;
75386;SDS011;63966;47.914;22.266;2023-12-04T01:20:29;28.87;;;12.30;;
75386;SDS011;63966;47.914;22.266;2023-12-04T01:23:32;29.70;;;13.05;;
75386;SDS011;63966;47.914;22.266;2023-12-04T01:26:36;32.22;;;13.38;;
75386;SDS011;63966;47.914;22.266;2023-12-04T01:29:40;29.37;;;12.60;;
75386;SDS011;63966;47.914;22.266;2023-12-04T01:32:43;33.65;;;13.48;;
75386;SDS011;63966;47.914;22.266;2023-12-04T01:35:47;26.60;;;13.70;;
75386;SDS011;63966;47.914;22.266;2023-12-04T01:38:50;36.05;;;12.90;;
75386;SDS011;63966;47.914;22.266;2023-12-04T01:41:54;34.65;;;14.13;;
75386;SDS011;63966;47.914;22.266;2023-12-04T01:44:57;35.85;;;13.88;;
75386;SDS011;63966;47.914;22.266;2023-12-04T01:48:00;34.15;;;13.88;;
75386;SDS011;63966;47.914;22.266;2023-12-04T01:51:06;33.30;;;13.77;;
75386;SDS011;63966;47.914;22.266;2023-12-04T01:54:11;36.88;;;14.02;;
75386;SDS011;63966;47.914;22.266;2023-12-04T01:57:15;37.65;;;15.15;;
75386;SDS011;63966;47.914;22.266;2023-12-04T02:00:19;27.30;;;13.47;;
75386;SDS011;63966;47.914;22.266;2023-12-04T02:03:23;33.75;;;14.10;;
75386;SDS011;63966;47.914;22.266;2023-12-04T02:06:26;30.48;;;13.55;;
75386;SDS011;63966;47.914;22.266;2023-12-04T02:09:30;31.92;;;13.93;;
75386;SDS011;63966;47.914;22.266;2023-12-04T02:12:34;32.47;;;13.65;;
75386;SDS011;63966;47.914;22.266;2023-12-04T02:15:38;31.15;;;12.45;;
75386;SDS011;63966;47.914;22.266;2023-12-04T02:18:42;32.25;;;13.00;;
75386;SDS011;63966;47.914;22.266;2023-12-04T02:21:46;27.27;;;12.33;;
75386;SDS011;63966;47.914;22.266;2023-12-04T02:24:50;28.45;;;11.95;;
75386;SDS011;63966;47.914;22.266;2023-12-04T02:27:53;30.75;;;13.02;;
75386;SDS011;63966;47.914;22.266;2023-12-04T02:31:02;28.45;;;12.82;;
75386;SDS011;63966;47.914;22.266;2023-12-04T02:34:09;37.38;;;14.70;;
75386;SDS011;63966;47.914;22.266;2023-12-04T02:37:13;31.88;;;13.25;;
75386;SDS011;63966;47.914;22.266;2023-12-04T02:40:17;34.20;;;12.65;;
75386;SDS011;63966;47.914;22.266;2023-12-04T02:43:23;28.63;;;12.07;;
75386;SDS011;63966;47.914;22.266;2023-12-04T02:46:27;30.35;;;11.75;;
75386;SDS011;63966;47.914;22.266;2023-12-04T02:49:31;28.10;;;12.57;;
75386;SDS011;63966;47.914;22.266;2023-12-04T02:52:34;26.67;;;12.87;;
75386;SDS011;63966;47.914;22.266;2023-12-04T02:55:37;30.23;;;12.45;;
75386;SDS011;63966;47.914;22.266;2023-12-04T02:58:41;32.58;;;13.57;;
75386;SDS011;63966;47.914;22.266;2023-12-04T03:01:44;31.75;;;14.48;;
75386;SDS011;63966;47.914;22.266;2023-12-04T03:04:48;35.92;;;13.60;;
75386;SDS011;63966;47.914;22.266;2023-12-04T03:07:51;37.00;;;15.30;;
75386;SDS011;63966;47.914;22.266;2023-12-04T03:10:54;37.97;;;15.15;;
75386;SDS011;63966;47.914;22.266;2023-12-04T03:13:59;33.80;;;14.83;;
75386;SDS011;63966;47.914;22.266;2023-12-04T03:17:03;35.40;;;15.55;;
75386;SDS011;63966;47.914;22.266;2023-12-04T03:20:07;37.55;;;16.60;;
75386;SDS011;63966;47.914;22.266;2023-12-04T03:23:11;36.05;;;15.90;;
75386;SDS011;63966;47.914;22.266;2023-12-04T03:26:14;34.00;;;15.77;;
75386;SDS011;63966;47.914;22.266;2023-12-04T03:29:18;35.38;;;15.13;;
75386;SDS011;63966;47.914;22.266;2023-12-04T03:32:21;26.55;;;12.95;;
75386;SDS011;63966;47.914;22.266;2023-12-04T03:35:26;30.87;;;13.20;;
75386;SDS011;63966;47.914;22.266;2023-12-04T03:38:29;26.45;;;13.80;;
75386;SDS011;63966;47.914;22.266;2023-12-04T03:41:33;29.15;;;14.80;;
75386;SDS011;63966;47.914;22.266;2023-12-04T03:44:37;28.30;;;13.70;;
75386;SDS011;63966;47.914;22.266;2023-12-04T03:47:41;31.08;;;15.68;;
75386;SDS011;63966;47.914;22.266;2023-12-04T03:50:44;33.42;;;17.15;;
75386;SDS011;63966;47.914;22.266;2023-12-04T03:53:48;28.48;;;14.75;;
75386;SDS011;63966;47.914;22.266;2023-12-04T03:56:51;32.30;;;14.97;;
75386;SDS011;63966;47.914;22.266;2023-12-04T03:59:55;32.38;;;15.07;;
75386;SDS011;63966;47.914;22.266;2023-12-04T04:02:58;32.72;;;15.57;;
75386;SDS011;63966;47.914;22.266;2023-12-04T04:06:02;29.77;;;15.10;;
75386;SDS011;63966;47.914;22.266;2023-12-04T04:09:06;29.00;;;14.83;;
75386;SDS011;63966;47.914;22.266;2023-12-04T04:12:09;25.25;;;12.75;;
75386;SDS011;63966;47.914;22.266;2023-12-04T04:15:13;30.13;;;14.00;;
75386;SDS011;63966;47.914;22.266;2023-12-04T04:18:16;25.00;;;13.18;;
75386;SDS011;63966;47.914;22.266;2023-12-04T04:21:20;31.08;;;13.23;;
75386;SDS011;63966;47.914;22.266;2023-12-04T04:24:23;27.63;;;12.73;;
75386;SDS011;63966;47.914;22.266;2023-12-04T04:27:27;27.67;;;12.80;;
75386;SDS011;63966;47.914;22.266;2023-12-04T04:30:30;24.37;;;11.30;;
75386;SDS011;63966;47.914;22.266;2023-12-04T04:33:34;23.38;;;11.00;;
75386;SDS011;63966;47.914;22.266;2023-12-04T04:36:37;22.58;;;9.90;;
75386;SDS011;63966;47.914;22.266;2023-12-04T04:39:41;25.27;;;9.80;;
75386;SDS011;63966;47.914;22.266;2023-12-04T04:42:45;22.43;;;10.17;;
75386;SDS011;63966;47.914;22.266;2023-12-04T04:45:49;24.38;;;10.15;;
75386;SDS011;63966;47.914;22.266;2023-12-04T04:48:53;21.42;;;9.60;;
75386;SDS011;63966;47.914;22.266;2023-12-04T04:51:56;22.10;;;9.55;;
75386;SDS011;63966;47.914;22.266;2023-12-04T04:55:00;21.20;;;9.63;;
75386;SDS011;63966;47.914;22.266;2023-12-04T04:58:04;22.63;;;11.27;;
75386;SDS011;63966;47.914;22.266;2023-12-04T05:01:08;20.27;;;9.55;;
75386;SDS011;63966;47.914;22.266;2023-12-04T05:04:11;21.40;;;10.23;;
75386;SDS011;63966;47.914;22.266;2023-12-04T05:07:15;19.35;;;9.00;;
75386;SDS011;63966;47.914;22.266;2023-12-04T05:10:18;22.08;;;9.63;;
75386;SDS011;63966;47.914;22.266;2023-12-04T05:13:22;21.15;;;8.88;;
75386;SDS011;63966;47.914;22.266;2023-12-04T05:16:26;26.50;;;10.93;;
75386;SDS011;63966;47.914;22.266;2023-12-04T05:19:29;23.30;;;9.65;;
75386;SDS011;63966;47.914;22.266;2023-12-04T05:22:34;23.40;;;10.13;;
75386;SDS011;63966;47.914;22.266;2023-12-04T05:25:37;21.80;;;9.50;;
75386;SDS011;63966;47.914;22.266;2023-12-04T05:28:49;18.07;;;8.47;;
75386;SDS011;63966;47.914;22.266;2023-12-04T05:31:52;21.10;;;9.68;;
75386;SDS011;63966;47.914;22.266;2023-12-04T05:34:56;20.00;;;8.65;;
75386;SDS011;63966;47.914;22.266;2023-12-04T05:37:59;19.40;;;8.95;;
75386;SDS011;63966;47.914;22.266;2023-12-04T05:41:03;21.63;;;9.70;;
75386;SDS011;63966;47.914;22.266;2023-12-04T05:44:06;18.45;;;8.68;;
75386;SDS011;63966;47.914;22.266;2023-12-04T05:47:10;19.70;;;8.90;;
75386;SDS011;63966;47.914;22.266;2023-12-04T05:50:13;19.25;;;8.63;;
75386;SDS011;63966;47.914;22.266;2023-12-04T05:53:17;20.70;;;9.47;;
75386;SDS011;63966;47.914;22.266;2023-12-04T05:56:21;19.40;;;9.73;;
75386;SDS011;63966;47.914;22.266;2023-12-04T05:59:24;19.10;;;8.70;;
75386;SDS011;63966;47.914;22.266;2023-12-04T06:02:27;17.90;;;7.97;;
75386;SDS011;63966;47.914;22.266;2023-12-04T06:05:32;20.27;;;9.43;;
75386;SDS011;63966;47.914;22.266;2023-12-04T06:08:36;23.65;;;9.93;;
75386;SDS011;63966;47.914;22.266;2023-12-04T06:11:39;24.90;;;10.68;;
75386;SDS011;63966;47.914;22.266;2023-12-04T06:14:45;33.90;;;12.43;;
75386;SDS011;63966;47.914;22.266;2023-12-04T06:17:49;28.80;;;12.30;;
75386;SDS011;63966;47.914;22.266;2023-12-04T06:20:52;26.27;;;11.18;;
75386;SDS011;63966;47.914;22.266;2023-12-04T06:23:55;23.38;;;11.50;;
75386;SDS011;63966;47.914;22.266;2023-12-04T06:27:00;24.27;;;11.13;;
75386;SDS011;63966;47.914;22.266;2023-12-04T06:30:04;22.42;;;9.85;;
75386;SDS011;63966;47.914;22.266;2023-12-04T06:33:09;21.88;;;10.15;;
75386;SDS011;63966;47.914;22.266;2023-12-04T06:36:13;23.02;;;9.48;;
75386;SDS011;63966;47.914;22.266;2023-12-04T06:39:17;24.83;;;10.10;;
75386;SDS011;63966;47.914;22.266;2023-12-04T06:42:21;19.15;;;9.23;;
75386;SDS011;63966;47.914;22.266;2023-12-04T06:45:24;19.15;;;9.55;;
75386;SDS011;63966;47.914;22.266;2023-12-04T06:48:29;22.73;;;10.07;;
75386;SDS011;63966;47.914;22.266;2023-12-04T06:51:33;24.85;;;10.85;;
75386;SDS011;63966;47.914;22.266;2023-12-04T06:54:39;19.60;;;9.77;;
75386;SDS011;63966;47.914;22.266;2023-12-04T06:57:43;24.08;;;9.98;;
75386;SDS011;63966;47.914;22.266;2023-12-04T07:00:47;25.33;;;9.60;;
75386;SDS011;63966;47.914;22.266;2023-12-04T07:03:51;20.48;;;8.77;;
75386;SDS011;63966;47.914;22.266;2023-12-04T07:06:54;20.67;;;9.40;;
75386;SDS011;63966;47.914;22.266;2023-12-04T07:10:00;19.70;;;8.93;;
75386;SDS011;63966;47.914;22.266;2023-12-04T07:13:04;20.13;;;10.27;;
75386;SDS011;63966;47.914;22.266;2023-12-04T07:16:07;21.67;;;8.98;;
75386;SDS011;63966;47.914;22.266;2023-12-04T07:19:12;19.80;;;9.88;;
75386;SDS011;63966;47.914;22.266;2023-12-04T07:22:17;16.42;;;8.25;;
75386;SDS011;63966;47.914;22.266;2023-12-04T07:25:20;22.83;;;9.47;;
75386;SDS011;63966;47.914;22.266;2023-12-04T07:28:25;22.15;;;9.85;;
75386;SDS011;63966;47.914;22.266;2023-12-04T07:31:28;20.30;;;8.75;;
75386;SDS011;63966;47.914;22.266;2023-12-04T07:34:31;23.15;;;11.27;;
75386;SDS011;63966;47.914;22.266;2023-12-04T07:37:35;20.00;;;9.03;;
75386;SDS011;63966;47.914;22.266;2023-12-04T07:40:39;25.58;;;10.48;;
75386;SDS011;63966;47.914;22.266;2023-12-04T07:43:43;22.33;;;9.65;;
75386;SDS011;63966;47.914;22.266;2023-12-04T07:46:46;24.20;;;10.98;;
75386;SDS011;63966;47.914;22.266;2023-12-04T07:49:50;26.90;;;11.30;;
75386;SDS011;63966;47.914;22.266;2023-12-04T07:52:53;21.25;;;9.52;;
75386;SDS011;63966;47.914;22.266;2023-12-04T07:55:57;23.50;;;10.23;;
75386;SDS011;63966;47.914;22.266;2023-12-04T07:59:03;26.60;;;11.00;;
75386;SDS011;63966;47.914;22.266;2023-12-04T08:02:06;25.15;;;9.95;;
75386;SDS011;63966;47.914;22.266;2023-12-04T08:05:10;23.45;;;9.65;;
75386;SDS011;63966;47.914;22.266;2023-12-04T08:08:15;22.10;;;8.88;;
75386;SDS011;63966;47.914;22.266;2023-12-04T08:11:18;22.63;;;9.43;;
75386;SDS011;63966;47.914;22.266;2023-12-04T08:14:23;18.53;;;8.60;;
75386;SDS011;63966;47.914;22.266;2023-12-04T08:17:28;18.98;;;9.52;;
75386;SDS011;63966;47.914;22.266;2023-12-04T08:20:32;22.65;;;8.80;;
75386;SDS011;63966;47.914;22.266;2023-12-04T08:23:42;20.17;;;8.05;;
75386;SDS011;63966;47.914;22.266;2023-12-04T08:26:45;19.70;;;8.80;;
75386;SDS011;63966;47.914;22.266;2023-12-04T08:29:49;21.15;;;9.02;;
75386;SDS011;63966;47.914;22.266;2023-12-04T08:32:53;18.77;;;8.55;;
75386;SDS011;63966;47.914;22.266;2023-12-04T08:35:57;19.05;;;7.90;;
75386;SDS011;63966;47.914;22.266;2023-12-04T08:39:00;20.13;;;8.23;;
75386;SDS011;63966;47.914;22.266;2023-12-04T08:42:04;22.95;;;10.10;;
75386;SDS011;63966;47.914;22.266;2023-12-04T08:45:15;18.92;;;9.15;;
75386;SDS011;63966;47.914;22.266;2023-12-04T08:48:22;15.32;;;7.85;;
75386;SDS011;63966;47.914;22.266;2023-12-04T08:51:26;16.02;;;7.68;;
75386;SDS011;63966;47.914;22.266;2023-12-04T08:54:29;21.10;;;9.02;;
75386;SDS011;63966;47.914;22.266;2023-12-04T08:57:33;20.17;;;8.30;;
75386;SDS011;63966;47.914;22.266;2023-12-04T09:00:37;19.73;;;8.57;;
75386;SDS011;63966;47.914;22.266;2023-12-04T09:03:45;17.37;;;7.63;;
75386;SDS011;63966;47.914;22.266;2023-12-04T09:06:49;16.40;;;6.72;;
75386;SDS011;63966;47.914;22.266;2023-12-04T09:09:56;14.15;;;6.50;;
75386;SDS011;63966;47.914;22.266;2023-12-04T09:12:59;14.30;;;6.35;;
75386;SDS011;63966;47.914;22.266;2023-12-04T09:16:03;14.40;;;6.40;;
75386;SDS011;63966;47.914;22.266;2023-12-04T09:19:07;18.03;;;7.47;;
75386;SDS011;63966;47.914;22.266;2023-12-04T09:22:10;15.25;;;7.15;;
75386;SDS011;63966;47.914;22.266;2023-12-04T09:25:22;16.65;;;7.47;;
75386;SDS011;63966;47.914;22.266;2023-12-04T09:28:26;18.33;;;7.28;;
75386;SDS011;63966;47.914;22.266;2023-12-04T09:31:29;15.03;;;6.97;;
75386;SDS011;63966;47.914;22.266;2023-12-04T09:34:36;14.55;;;6.85;;
75386;SDS011;63966;47.914;22.266;2023-12-04T09:37:40;18.65;;;8.30;;
75386;SDS011;63966;47.914;22.266;2023-12-04T09:40:44;13.65;;;6.40;;
75386;SDS011;63966;47.914;22.266;2023-12-04T09:43:48;12.52;;;6.10;;
75386;SDS011;63966;47.914;22.266;2023-12-04T09:46:52;19.00;;;7.63;;
75386;SDS011;63966;47.914;22.266;2023-12-04T09:49:55;16.70;;;7.30;;
75386;SDS011;63966;47.914;22.266;2023-12-04T09:53:00;11.67;;;5.73;;
75386;SDS011;63966;47.914;22.266;2023-12-04T09:56:04;12.82;;;5.70;;
75386;SDS011;63966;47.914;22.266;2023-12-04T09:59:12;12.43;;;5.78;;
75386;SDS011;63966;47.914;22.266;2023-12-04T10:02:18;13.05;;;6.00;;
75386;SDS011;63966;47.914;22.266;2023-12-04T10:05:24;12.53;;;6.40;;
75386;SDS011;63966;47.914;22.266;2023-12-04T10:08:27;14.38;;;6.80;;
75386;SDS011;63966;47.914;22.266;2023-12-04T10:15:27;11.93;;;5.72;;
75386;SDS011;63966;47.914;22.266;2023-12-04T10:18:32;12.13;;;6.30;;
75386;SDS011;63966;47.914;22.266;2023-12-04T10:21:36;13.65;;;6.38;;
75386;SDS011;63966;47.914;22.266;2023-12-04T10:24:39;18.10;;;8.07;;
75386;SDS011;63966;47.914;22.266;2023-12-04T10:27:43;20.05;;;9.02;;
75386;SDS011;63966;47.914;22.266;2023-12-04T10:30:50;14.83;;;6.90;;
75386;SDS011;63966;47.914;22.266;2023-12-04T10:34:00;15.15;;;6.57;;
75386;SDS011;63966;47.914;22.266;2023-12-04T10:37:07;13.05;;;6.03;;
75386;SDS011;63966;47.914;22.266;2023-12-04T10:40:11;11.82;;;5.35;;
75386;SDS011;63966;47.914;22.266;2023-12-04T10:43:29;12.57;;;6.20;;
75386;SDS011;63966;47.914;22.266;2023-12-04T10:46:34;13.63;;;6.57;;
75386;SDS011;63966;47.914;22.266;2023-12-04T10:49:39;13.82;;;6.63;;
75386;SDS011;63966;47.914;22.266;2023-12-04T10:52:46;13.45;;;6.20;;
75386;SDS011;63966;47.914;22.266;2023-12-04T10:55:49;11.40;;;5.53;;
75386;SDS011;63966;47.914;22.266;2023-12-04T10:58:58;10.82;;;5.35;;
75386;SDS011;63966;47.914;22.266;2023-12-04T11:02:06;12.73;;;5.57;;
75386;SDS011;63966;47.914;22.266;2023-12-04T11:05:16;12.77;;;6.45;;
75386;SDS011;63966;47.914;22.266;2023-12-04T11:08:24;11.83;;;5.80;;
75386;SDS011;63966;47.914;22.266;2023-12-04T11:11:34;11.57;;;5.43;;
75386;SDS011;63966;47.914;22.266;2023-12-04T11:14:44;13.40;;;5.93;;
75386;SDS011;63966;47.914;22.266;2023-12-04T11:17:53;7.35;;;3.35;;
75386;SDS011;63966;47.914;22.266;2023-12-04T11:21:07;12.47;;;5.20;;
75386;SDS011;63966;47.914;22.266;2023-12-04T11:24:12;11.52;;;5.32;;
75386;SDS011;63966;47.914;22.266;2023-12-04T11:27:19;10.20;;;5.13;;
75386;SDS011;63966;47.914;22.266;2023-12-04T11:30:23;11.43;;;4.90;;
75386;SDS011;63966;47.914;22.266;2023-12-04T11:33:27;10.13;;;4.95;;
75386;SDS011;63966;47.914;22.266;2023-12-04T11:36:37;12.15;;;5.13;;
75386;SDS011;63966;47.914;22.266;2023-12-04T11:39:41;11.98;;;5.63;;
75386;SDS011;63966;47.914;22.266;2023-12-04T11:42:48;10.10;;;5.03;;
75386;SDS011;63966;47.914;22.266;2023-12-04T11:45:52;10.67;;;5.90;;
75386;SDS011;63966;47.914;22.266;2023-12-04T11:48:56;11.10;;;5.68;;
75386;SDS011;63966;47.914;22.266;2023-12-04T11:52:31;11.48;;;5.03;;
75386;SDS011;63966;47.914;22.266;2023-12-04T11:55:39;9.43;;;4.15;;
75386;SDS011;63966;47.914;22.266;2023-12-04T11:58:46;10.40;;;4.60;;
75386;SDS011;63966;47.914;22.266;2023-12-04T12:01:50;14.32;;;5.25;;
75386;SDS011;63966;47.914;22.266;2023-12-04T12:04:56;27.38;;;8.63;;
75386;SDS011;63966;47.914;22.266;2023-12-04T12:08:05;19.88;;;7.90;;
75386;SDS011;63966;47.914;22.266;2023-12-04T12:11:10;14.87;;;6.77;;
75386;SDS011;63966;47.914;22.266;2023-12-04T12:14:19;12.05;;;5.63;;
75386;SDS011;63966;47.914;22.266;2023-12-04T12:17:24;14.18;;;7.28;;
75386;SDS011;63966;47.914;22.266;2023-12-04T12:20:28;15.05;;;6.78;;
75386;SDS011;63966;47.914;22.266;2023-12-04T12:23:32;11.80;;;5.53;;
75386;SDS011;63966;47.914;22.266;2023-12-04T12:26:36;11.95;;;5.75;;
75386;SDS011;63966;47.914;22.266;2023-12-04T12:29:39;12.63;;;5.88;;
75386;SDS011;63966;47.914;22.266;2023-12-04T12:32:43;12.10;;;6.40;;
75386;SDS011;63966;47.914;22.266;2023-12-04T12:35:48;14.27;;;7.70;;
75386;SDS011;63966;47.914;22.266;2023-12-04T12:39:04;15.97;;;7.20;;
75386;SDS011;63966;47.914;22.266;2023-12-04T12:42:11;10.82;;;5.97;;
75386;SDS011;63966;47.914;22.266;2023-12-04T12:45:22;12.88;;;6.10;;
75386;SDS011;63966;47.914;22.266;2023-12-04T12:48:26;14.05;;;6.35;;
75386;SDS011;63966;47.914;22.266;2023-12-04T12:51:32;11.75;;;6.05;;
75386;SDS011;63966;47.914;22.266;2023-12-04T12:54:42;11.52;;;5.60;;
75386;SDS011;63966;47.914;22.266;2023-12-04T12:57:46;14.85;;;7.10;;
75386;SDS011;63966;47.914;22.266;2023-12-04T13:00:50;18.17;;;7.70;;
75386;SDS011;63966;47.914;22.266;2023-12-04T13:03:56;19.23;;;8.45;;
75386;SDS011;63966;47.914;22.266;2023-12-04T13:07:00;20.45;;;9.25;;
75386;SDS011;63966;47.914;22.266;2023-12-04T13:10:05;13.70;;;7.00;;
75386;SDS011;63966;47.914;22.266;2023-12-04T13:13:11;11.65;;;5.85;;
75386;SDS011;63966;47.914;22.266;2023-12-04T13:16:17;17.23;;;7.75;;
75386;SDS011;63966;47.914;22.266;2023-12-04T13:19:22;12.40;;;6.40;;
75386;SDS011;63966;47.914;22.266;2023-12-04T13:22:28;11.73;;;5.97;;
75386;SDS011;63966;47.914;22.266;2023-12-04T13:25:32;14.85;;;6.25;;
75386;SDS011;63966;47.914;22.266;2023-12-04T13:28:36;13.55;;;6.63;;
75386;SDS011;63966;47.914;22.266;2023-12-04T13:31:45;13.25;;;6.35;;
75386;SDS011;63966;47.914;22.266;2023-12-04T13:34:53;15.07;;;7.03;;
75386;SDS011;63966;47.914;22.266;2023-12-04T13:37:57;12.23;;;6.03;;
75386;SDS011;63966;47.914;22.266;2023-12-04T13:41:01;13.07;;;6.33;;
75386;SDS011;63966;47.914;22.266;2023-12-04T13:44:31;14.20;;;6.97;;
75386;SDS011;63966;47.914;22.266;2023-12-04T13:47:35;15.43;;;8.50;;
75386;SDS011;63966;47.914;22.266;2023-12-04T13:50:40;18.65;;;8.77;;
75386;SDS011;63966;47.914;22.266;2023-12-04T13:53:43;19.50;;;9.60;;
75386;SDS011;63966;47.914;22.266;2023-12-04T13:56:51;19.25;;;8.25;;
75386;SDS011;63966;47.914;22.266;2023-12-04T13:59:59;21.85;;;9.10;;
75386;SDS011;63966;47.914;22.266;2023-12-04T14:03:05;16.67;;;8.00;;
75386;SDS011;63966;47.914;22.266;2023-12-04T14:06:09;13.80;;;8.10;;
75386;SDS011;63966;47.914;22.266;2023-12-04T14:09:14;14.80;;;7.78;;
75386;SDS011;63966;47.914;22.266;2023-12-04T14:12:18;19.58;;;9.20;;
75386;SDS011;63966;47.914;22.266;2023-12-04T14:15:22;21.85;;;10.30;;
75386;SDS011;63966;47.914;22.266;2023-12-04T14:18:26;31.33;;;14.00;;
75386;SDS011;63966;47.914;22.266;2023-12-04T14:21:29;48.47;;;20.88;;
75386;SDS011;63966;47.914;22.266;2023-12-04T14:24:32;57.65;;;25.42;;
75386;SDS011;63966;47.914;22.266;2023-12-04T14:27:38;47.27;;;22.50;;
75386;SDS011;63966;47.914;22.266;2023-12-04T14:30:47;25.88;;;14.13;;
75386;SDS011;63966;47.914;22.266;2023-12-04T14:33:50;30.95;;;15.45;;
75386;SDS011;63966;47.914;22.266;2023-12-04T14:36:55;32.63;;;14.07;;
75386;SDS011;63966;47.914;22.266;2023-12-04T14:39:58;31.60;;;15.00;;
75386;SDS011;63966;47.914;22.266;2023-12-04T14:43:02;24.67;;;12.13;;
75386;SDS011;63966;47.914;22.266;2023-12-04T14:46:05;30.15;;;15.05;;
75386;SDS011;63966;47.914;22.266;2023-12-04T14:49:11;26.65;;;11.82;;
75386;SDS011;63966;47.914;22.266;2023-12-04T14:52:15;21.10;;;10.23;;
75386;SDS011;63966;47.914;22.266;2023-12-04T14:55:18;23.35;;;10.88;;
75386;SDS011;63966;47.914;22.266;2023-12-04T14:58:26;19.58;;;10.30;;
75386;SDS011;63966;47.914;22.266;2023-12-04T15:01:29;19.10;;;9.50;;
75386;SDS011;63966;47.914;22.266;2023-12-04T15:04:52;18.77;;;9.27;;
75386;SDS011;63966;47.914;22.266;2023-12-04T15:08:22;20.23;;;9.88;;
75386;SDS011;63966;47.914;22.266;2023-12-04T15:11:25;29.70;;;13.55;;
75386;SDS011;63966;47.914;22.266;2023-12-04T15:14:47;25.48;;;10.90;;
75386;SDS011;63966;47.914;22.266;2023-12-04T15:17:59;17.90;;;8.80;;
75386;SDS011;63966;47.914;22.266;2023-12-04T15:21:21;16.63;;;7.68;;
75386;SDS011;63966;47.914;22.266;2023-12-04T15:24:24;15.85;;;7.07;;
75386;SDS011;63966;47.914;22.266;2023-12-04T15:27:28;21.13;;;8.75;;
75386;SDS011;63966;47.914;22.266;2023-12-04T15:30:31;29.30;;;13.67;;
75386;SDS011;63966;47.914;22.266;2023-12-04T15:33:36;33.65;;;15.73;;
75386;SDS011;63966;47.914;22.266;2023-12-04T15:36:39;36.75;;;17.40;;
75386;SDS011;63966;47.914;22.266;2023-12-04T15:39:43;24.08;;;11.82;;
75386;SDS011;63966;47.914;22.266;2023-12-04T15:42:46;27.58;;;12.48;;
75386;SDS011;63966;47.914;22.266;2023-12-04T15:45:50;23.75;;;12.55;;
75386;SDS011;63966;47.914;22.266;2023-12-04T15:48:55;26.67;;;11.50;;
75386;SDS011;63966;47.914;22.266;2023-12-04T15:51:59;26.10;;;12.60;;
75386;SDS011;63966;47.914;22.266;2023-12-04T15:55:03;32.92;;;15.80;;
75386;SDS011;63966;47.914;22.266;2023-12-04T15:58:07;47.75;;;21.63;;
75386;SDS011;63966;47.914;22.266;2023-12-04T16:01:11;27.67;;;12.65;;
75386;SDS011;63966;47.914;22.266;2023-12-04T16:04:15;33.40;;;14.85;;
75386;SDS011;63966;47.914;22.266;2023-12-04T16:07:19;29.63;;;13.18;;
75386;SDS011;63966;47.914;22.266;2023-12-04T16:10:22;35.92;;;16.23;;
75386;SDS011;63966;47.914;22.266;2023-12-04T16:13:26;32.00;;;14.70;;
75386;SDS011;63966;47.914;22.266;2023-12-04T16:16:29;30.35;;;14.35;;
75386;SDS011;63966;47.914;22.266;2023-12-04T16:19:33;26.58;;;12.68;;
75386;SDS011;63966;47.914;22.266;2023-12-04T16:22:39;62.03;;;25.27;;
75386;SDS011;63966;47.914;22.266;2023-12-04T16:25:45;68.07;;;26.20;;
75386;SDS011;63966;47.914;22.266;2023-12-04T16:28:49;62.45;;;23.92;;
75386;SDS011;63966;47.914;22.266;2023-12-04T16:31:52;49.25;;;20.13;;
75386;SDS011;63966;47.914;22.266;2023-12-04T16:34:55;22.65;;;11.05;;
75386;SDS011;63966;47.914;22.266;2023-12-04T16:38:01;16.58;;;7.68;;
75386;SDS011;63966;47.914;22.266;2023-12-04T16:41:04;14.95;;;6.80;;
75386;SDS011;63966;47.914;22.266;2023-12-04T16:44:08;16.33;;;6.73;;
75386;SDS011;63966;47.914;22.266;2023-12-04T16:47:17;14.02;;;6.88;;
75386;SDS011;63966;47.914;22.266;2023-12-04T16:50:20;14.98;;;6.45;;
75386;SDS011;63966;47.914;22.266;2023-12-04T16:53:26;15.87;;;7.23;;
75386;SDS011;63966;47.914;22.266;2023-12-04T16:56:29;15.40;;;6.90;;
75386;SDS011;63966;47.914;22.266;2023-12-04T16:59:33;13.85;;;6.38;;
75386;SDS011;63966;47.914;22.266;2023-12-04T17:02:37;16.15;;;7.65;;
75386;SDS011;63966;47.914;22.266;2023-12-04T17:05:40;21.42;;;9.13;;
75386;SDS011;63966;47.914;22.266;2023-12-04T17:08:44;22.63;;;9.68;;
75386;SDS011;63966;47.914;22.266;2023-12-04T17:11:49;33.38;;;12.18;;
75386;SDS011;63966;47.914;22.266;2023-12-04T17:14:52;42.50;;;17.17;;
75386;SDS011;63966;47.914;22.266;2023-12-04T17:17:57;26.45;;;13.50;;
75386;SDS011;63966;47.914;22.266;2023-12-04T17:21:02;31.75;;;13.00;;
75386;SDS011;63966;47.914;22.266;2023-12-04T17:24:06;56.10;;;22.17;;
75386;SDS011;63966;47.914;22.266;2023-12-04T17:27:10;76.60;;;26.02;;
75386;SDS011;63966;47.914;22.266;2023-12-04T17:30:13;78.13;;;25.25;;
75386;SDS011;63966;47.914;22.266;2023-12-04T17:33:17;52.38;;;20.45;;
75386;SDS011;63966;47.914;22.266;2023-12-04T17:36:21;58.95;;;20.63;;
75386;SDS011;63966;47.914;22.266;2023-12-04T17:39:25;46.90;;;18.35;;
75386;SDS011;63966;47.914;22.266;2023-12-04T17:42:28;38.22;;;16.45;;
75386;SDS011;63966;47.914;22.266;2023-12-04T17:45:32;37.00;;;15.17;;
75386;SDS011;63966;47.914;22.266;2023-12-04T17:48:36;31.88;;;13.68;;
75386;SDS011;63966;47.914;22.266;2023-12-04T17:51:40;27.08;;;11.98;;
75386;SDS011;63966;47.914;22.266;2023-12-04T17:54:44;29.57;;;12.70;;
75386;SDS011;63966;47.914;22.266;2023-12-04T17:57:47;26.33;;;11.77;;